createdAt,value
2018-07-10T00:02:16.370Z,22.80
2018-07-10T00:07:03.619Z,22.82
2018-07-10T00:11:45.038Z,22.83
2018-07-10T00:14:13.622Z,22.82
2018-07-10T00:16:42.284Z,22.81
2018-07-10T00:19:10.793Z,22.79
2018-07-10T00:21:39.312Z,22.78
2018-07-10T00:24:07.990Z,22.78
2018-07-10T00:26:36.474Z,22.75
2018-07-10T00:29:05.012Z,22.76
2018-07-10T00:31:34.159Z,22.72
2018-07-10T00:34:02.716Z,22.69
2018-07-10T00:36:31.975Z,22.64
2018-07-10T00:39:04.335Z,22.60
2018-07-10T00:41:34.169Z,22.57
2018-07-10T00:44:03.398Z,22.52
2018-07-10T00:46:33.874Z,22.47
2018-07-10T00:49:02.409Z,22.48
2018-07-10T00:51:31.762Z,22.50
2018-07-10T00:54:00.343Z,22.52
2018-07-10T00:56:28.872Z,22.51
2018-07-10T00:58:57.566Z,22.49
2018-07-10T01:01:26.827Z,22.47
2018-07-10T01:03:55.428Z,22.45
2018-07-10T01:06:23.911Z,22.42
2018-07-10T01:08:52.805Z,22.42
2018-07-10T01:11:21.845Z,22.41
2018-07-10T01:13:51.076Z,22.40
2018-07-10T01:16:37.329Z,22.37
2018-07-10T01:19:08.982Z,22.34
2018-07-10T01:21:37.463Z,22.31
2018-07-10T01:24:05.965Z,22.27
2018-07-10T01:26:36.949Z,22.22
2018-07-10T01:29:11.964Z,22.20
2018-07-10T01:31:43.037Z,22.15
2018-07-10T01:34:11.691Z,22.08
2018-07-10T01:36:40.156Z,22.01
2018-07-10T01:39:08.707Z,21.98
2018-07-10T01:41:37.437Z,21.93
2018-07-10T01:44:06.090Z,21.91
2018-07-10T01:46:34.789Z,21.86
2018-07-10T01:49:03.652Z,21.80
2018-07-10T01:51:33.560Z,21.74
2018-07-10T01:54:02.128Z,21.69
2018-07-10T01:56:31.037Z,21.69
2018-07-10T01:58:59.612Z,21.64
2018-07-10T02:01:28.137Z,21.62
2018-07-10T02:03:58.231Z,21.62
2018-07-10T02:06:26.961Z,21.59
2018-07-10T02:08:55.733Z,21.61
2018-07-10T02:11:24.364Z,21.63
2018-07-10T02:13:52.935Z,21.65
2018-07-10T02:16:21.481Z,21.65
2018-07-10T02:18:50.092Z,21.64
2018-07-10T02:21:18.597Z,21.63
2018-07-10T02:23:47.245Z,21.61
2018-07-10T02:26:25.098Z,21.60
2018-07-10T02:28:54.369Z,21.60
2018-07-10T02:31:23.101Z,21.60
2018-07-10T02:33:52.717Z,21.60
2018-07-10T02:36:22.333Z,21.63
2018-07-10T02:38:52.742Z,21.64
2018-07-10T02:41:22.697Z,21.64
2018-07-10T02:43:56.582Z,21.61
2018-07-10T02:46:25.697Z,21.56
2018-07-10T02:48:55.758Z,21.57
2018-07-10T02:51:24.289Z,21.55
2018-07-10T02:53:52.815Z,21.54
2018-07-10T02:56:21.830Z,21.56
2018-07-10T02:58:50.777Z,21.58
2018-07-10T03:01:19.950Z,21.61
2018-07-10T03:03:49.474Z,21.61
2018-07-10T03:06:18.095Z,21.61
2018-07-10T03:08:47.098Z,21.62
2018-07-10T03:11:15.786Z,21.62
2018-07-10T03:13:44.472Z,21.60
2018-07-10T03:16:13.468Z,21.61
2018-07-10T03:18:42.162Z,21.62
2018-07-10T03:21:10.660Z,21.60
2018-07-10T03:23:39.311Z,21.59
2018-07-10T03:26:07.950Z,21.56
2018-07-10T03:28:36.504Z,21.54
2018-07-10T03:31:05.133Z,21.51
2018-07-10T03:33:33.802Z,21.48
2018-07-10T03:36:02.413Z,21.47
2018-07-10T03:38:30.940Z,21.46
2018-07-10T03:40:59.657Z,21.48
2018-07-10T03:43:28.354Z,21.48
2018-07-10T03:45:57.363Z,21.48
2018-07-10T03:48:26.410Z,21.48
2018-07-10T03:50:55.533Z,21.47
2018-07-10T03:53:24.326Z,21.46
2018-07-10T03:55:52.953Z,21.44
2018-07-10T03:58:21.600Z,21.44
2018-07-10T04:00:50.248Z,21.45
2018-07-10T04:03:20.710Z,21.43
2018-07-10T04:05:50.679Z,21.42
2018-07-10T04:08:19.238Z,21.42
2018-07-10T04:10:47.815Z,21.41
2018-07-10T04:13:20.184Z,21.40
2018-07-10T04:15:53.278Z,21.42
2018-07-10T04:18:25.720Z,21.39
2018-07-10T04:20:57.557Z,21.36
2018-07-10T04:23:30.111Z,21.35
2018-07-10T04:25:59.067Z,21.34
2018-07-10T04:28:30.800Z,21.34
2018-07-10T04:31:15.133Z,21.36
2018-07-10T04:33:46.547Z,21.36
2018-07-10T04:36:15.676Z,21.40
2018-07-10T04:38:45.602Z,21.44
2018-07-10T04:41:19.573Z,21.46
2018-07-10T04:44:12.934Z,21.45
2018-07-10T04:46:49.125Z,21.44
2018-07-10T04:49:28.212Z,21.46
2018-07-10T04:52:04.986Z,21.48
2018-07-10T04:54:43.866Z,21.55
2018-07-10T04:57:16.287Z,21.59
2018-07-10T04:59:45.196Z,21.63
2018-07-10T05:02:14.710Z,21.71
2018-07-10T05:04:43.233Z,21.81
2018-07-10T05:07:12.221Z,21.88
2018-07-10T05:09:42.567Z,22.01
2018-07-10T05:12:11.303Z,22.11
2018-07-10T05:14:42.937Z,22.13
2018-07-10T05:17:11.701Z,22.09
2018-07-10T05:19:40.545Z,22.00
2018-07-10T05:22:09.242Z,21.98
2018-07-10T05:24:38.144Z,21.95
2018-07-10T05:27:06.826Z,21.93
2018-07-10T05:29:35.535Z,21.89
2018-07-10T05:32:04.441Z,21.91
2018-07-10T05:34:34.719Z,21.93
2018-07-10T05:37:03.387Z,21.94
2018-07-10T05:39:33.828Z,21.96
2018-07-10T05:42:02.445Z,21.99
2018-07-10T05:44:31.956Z,21.99
2018-07-10T05:47:02.955Z,22.05
2018-07-10T05:49:37.061Z,22.14
2018-07-10T05:52:05.622Z,22.25
2018-07-10T05:54:34.342Z,22.36
2018-07-10T05:57:02.973Z,22.61
2018-07-10T05:59:31.496Z,22.86
2018-07-10T06:02:00.144Z,23.18
2018-07-10T06:04:28.809Z,23.54
2018-07-10T06:06:57.380Z,23.92
2018-07-10T06:09:26.093Z,24.35
2018-07-10T06:11:54.739Z,24.75
2018-07-10T06:14:23.547Z,25.18
2018-07-10T06:16:52.352Z,25.69
2018-07-10T06:19:21.188Z,26.16
2018-07-10T06:21:50.393Z,26.54
2018-07-10T06:24:26.807Z,26.92
2018-07-10T06:27:06.926Z,27.08
2018-07-10T06:29:46.585Z,27.22
2018-07-10T06:32:19.491Z,27.51
2018-07-10T06:34:48.459Z,28.04
2018-07-10T06:37:24.142Z,28.45
2018-07-10T06:39:53.865Z,28.55
2018-07-10T06:42:25.968Z,28.50
2018-07-10T06:44:54.665Z,28.39
2018-07-10T06:47:29.493Z,28.12
2018-07-10T06:49:59.834Z,27.86
2018-07-10T06:52:28.678Z,27.54
2018-07-10T06:55:04.472Z,27.23
2018-07-10T06:57:34.291Z,26.91
2018-07-10T07:00:08.525Z,26.68
2018-07-10T07:02:38.759Z,26.47
2018-07-10T07:05:07.552Z,26.31
2018-07-10T07:07:37.300Z,26.13
2018-07-10T07:10:06.841Z,25.87
2018-07-10T07:12:36.193Z,25.71
2018-07-10T07:15:07.027Z,25.56
2018-07-10T07:17:36.475Z,25.44
2018-07-10T07:20:05.356Z,25.35
2018-07-10T07:22:34.876Z,25.34
2018-07-10T07:25:04.133Z,25.36
2018-07-10T07:27:33.449Z,25.31
2018-07-10T07:30:02.387Z,25.11
2018-07-10T07:32:31.259Z,24.94
2018-07-10T07:34:59.836Z,24.78
2018-07-10T07:37:28.764Z,24.70
2018-07-10T07:39:57.728Z,24.66
2018-07-10T07:42:27.595Z,24.57
2018-07-10T07:44:56.334Z,24.50
2018-07-10T07:47:27.678Z,24.46
2018-07-10T07:49:56.326Z,24.45
2018-07-10T07:52:25.653Z,24.50
2018-07-10T07:54:54.406Z,24.58
2018-07-10T07:57:23.661Z,24.57
2018-07-10T07:59:52.204Z,24.53
2018-07-10T08:02:21.296Z,24.52
2018-07-10T08:04:50.086Z,24.61
2018-07-10T08:07:19.518Z,24.66
2018-07-10T08:09:48.895Z,24.71
2018-07-10T08:12:17.497Z,24.75
2018-07-10T08:14:46.941Z,24.75
2018-07-10T08:17:15.820Z,24.79
2018-07-10T08:19:45.765Z,24.77
2018-07-10T08:22:14.469Z,24.83
2018-07-10T08:24:43.046Z,24.91
2018-07-10T08:27:11.656Z,24.92
2018-07-10T08:29:40.948Z,24.93
2018-07-10T08:32:09.494Z,24.98
2018-07-10T08:34:38.069Z,24.99
2018-07-10T08:37:06.645Z,24.89
2018-07-10T08:39:35.294Z,24.82
2018-07-10T08:42:05.637Z,24.78
2018-07-10T08:44:34.438Z,24.71
2018-07-10T08:47:03.376Z,24.51
2018-07-10T08:49:35.080Z,24.39
2018-07-10T08:52:03.787Z,24.30
2018-07-10T08:54:32.478Z,24.19
2018-07-10T08:57:02.254Z,24.07
2018-07-10T08:59:31.282Z,24.01
2018-07-10T09:02:00.393Z,24.00
2018-07-10T09:04:29.064Z,23.97
2018-07-10T09:06:57.887Z,23.92
2018-07-10T09:09:26.755Z,23.83
2018-07-10T09:11:55.394Z,23.71
2018-07-10T09:14:24.007Z,23.62
2018-07-10T09:16:52.667Z,23.53
2018-07-10T09:19:25.278Z,23.43
2018-07-10T09:21:57.594Z,23.43
2018-07-10T09:24:26.127Z,23.48
2018-07-10T09:26:54.801Z,23.53
2018-07-10T09:29:24.295Z,23.67
2018-07-10T09:31:53.076Z,23.81
2018-07-10T09:34:22.070Z,23.86
2018-07-10T09:36:50.660Z,23.88
2018-07-10T09:39:19.254Z,23.86
2018-07-10T09:41:47.916Z,23.79
2018-07-10T09:44:16.567Z,23.74
2018-07-10T09:46:45.478Z,23.70
2018-07-10T09:49:14.109Z,23.69
2018-07-10T09:51:42.702Z,23.68
2018-07-10T09:54:11.559Z,23.67
2018-07-10T09:56:40.111Z,23.64
2018-07-10T09:59:08.740Z,23.56
2018-07-10T10:01:37.417Z,23.50
2018-07-10T10:04:06.271Z,23.44
2018-07-10T10:06:35.340Z,23.35
2018-07-10T10:09:04.718Z,23.27
2018-07-10T10:11:33.318Z,23.24
2018-07-10T10:14:02.891Z,23.18
2018-07-10T10:16:31.538Z,23.21
2018-07-10T10:19:00.406Z,23.25
2018-07-10T10:21:29.717Z,23.34
2018-07-10T10:23:59.675Z,23.45
2018-07-10T10:26:28.477Z,23.52
2018-07-10T10:28:57.169Z,23.63
2018-07-10T10:31:25.721Z,23.70
2018-07-10T10:33:54.329Z,23.68
2018-07-10T10:36:23.004Z,23.68
2018-07-10T10:38:51.663Z,23.64
2018-07-10T10:41:20.289Z,23.64
2018-07-10T10:43:49.653Z,23.65
2018-07-10T10:46:20.815Z,23.63
2018-07-10T10:48:49.512Z,23.60
2018-07-10T10:51:20.160Z,23.58
2018-07-10T10:53:49.124Z,23.57
2018-07-10T10:56:17.891Z,23.57
2018-07-10T10:58:46.568Z,23.54
2018-07-10T11:01:15.147Z,23.50
2018-07-10T11:03:44.151Z,23.50
2018-07-10T11:06:12.758Z,23.55
2018-07-10T11:08:41.543Z,23.61
2018-07-10T11:11:10.932Z,23.58
2018-07-10T11:13:39.720Z,23.58
2018-07-10T11:16:08.827Z,23.59
2018-07-10T11:18:47.636Z,23.59
2018-07-10T11:21:27.508Z,23.60
2018-07-10T11:23:57.339Z,23.53
2018-07-10T11:26:32.638Z,23.48
2018-07-10T11:29:01.903Z,23.42
2018-07-10T11:31:30.677Z,23.42
2018-07-10T11:33:59.528Z,23.48
2018-07-10T11:36:28.207Z,23.55
2018-07-10T11:38:59.977Z,23.60
2018-07-10T11:41:29.790Z,23.67
2018-07-10T11:43:59.274Z,23.75
2018-07-10T11:46:27.924Z,23.84
2018-07-10T11:48:56.580Z,23.85
2018-07-10T11:51:25.470Z,23.88
2018-07-10T11:53:54.364Z,23.92
2018-07-10T11:56:22.951Z,24.03
2018-07-10T11:58:51.587Z,24.12
2018-07-10T12:01:20.143Z,24.16
2018-07-10T12:03:48.826Z,24.13
2018-07-10T12:06:17.376Z,24.05
2018-07-10T12:09:00.522Z,24.05
2018-07-10T12:11:31.436Z,23.98
2018-07-10T12:13:59.996Z,23.96
2018-07-10T12:16:28.515Z,23.94
2018-07-10T12:18:57.025Z,23.88
2018-07-10T12:21:26.069Z,23.85
2018-07-10T12:23:55.104Z,23.83
2018-07-10T12:26:23.836Z,23.82
2018-07-10T12:28:52.554Z,23.79
2018-07-10T12:31:21.167Z,23.75
2018-07-10T12:33:49.725Z,23.72
2018-07-10T12:36:18.351Z,23.68
2018-07-10T12:38:47.016Z,23.61
2018-07-10T12:41:15.802Z,23.47
2018-07-10T12:43:44.399Z,23.31
2018-07-10T12:46:13.485Z,23.23
2018-07-10T12:48:42.029Z,23.14
2018-07-10T12:51:10.639Z,23.07
2018-07-10T12:53:39.542Z,23.00
2018-07-10T12:56:08.052Z,22.96
2018-07-10T12:58:39.735Z,22.91
2018-07-10T13:01:08.839Z,22.85
2018-07-10T13:03:37.769Z,22.85
2018-07-10T13:06:06.376Z,22.83
2018-07-10T13:08:34.980Z,22.85
2018-07-10T13:11:03.577Z,22.88
2018-07-10T13:13:32.838Z,22.89
2018-07-10T13:16:01.512Z,22.87
2018-07-10T13:18:31.515Z,22.87
2018-07-10T13:21:00.158Z,22.87
2018-07-10T13:23:28.743Z,22.93
2018-07-10T13:25:57.405Z,22.98
2018-07-10T13:28:25.955Z,23.01
2018-07-10T13:30:54.588Z,23.05
2018-07-10T13:33:23.085Z,23.12
2018-07-10T13:35:51.707Z,23.17
2018-07-10T13:38:21.214Z,23.27
2018-07-10T13:40:50.635Z,23.41
2018-07-10T13:43:19.243Z,23.56
2018-07-10T13:45:47.858Z,23.65
2018-07-10T13:48:16.445Z,23.74
2018-07-10T13:50:45.276Z,23.80
2018-07-10T13:53:13.865Z,23.83
2018-07-10T13:55:42.410Z,23.84
2018-07-10T13:58:14.894Z,23.93
2018-07-10T14:00:46.606Z,24.09
2018-07-10T14:03:15.138Z,24.22
2018-07-10T14:05:43.726Z,24.29
2018-07-10T14:08:12.219Z,24.32
2018-07-10T14:10:40.764Z,24.33
2018-07-10T14:13:09.372Z,24.34
2018-07-10T14:15:37.887Z,24.33
2018-07-10T14:18:06.719Z,24.34
2018-07-10T14:20:43.791Z,24.31
2018-07-10T14:23:12.911Z,24.22
2018-07-10T14:25:41.651Z,24.15
2018-07-10T14:28:10.275Z,24.16
2018-07-10T14:30:38.896Z,24.14
2018-07-10T14:33:07.392Z,24.16
2018-07-10T14:35:36.183Z,24.20
2018-07-10T14:38:06.563Z,24.44
2018-07-10T14:40:38.152Z,24.69
2018-07-10T14:43:07.030Z,24.92
2018-07-10T14:45:36.872Z,25.07
2018-07-10T14:48:06.179Z,25.07
2018-07-10T14:50:34.864Z,25.01
2018-07-10T14:53:04.666Z,24.94
2018-07-10T14:55:33.488Z,24.85
2018-07-10T14:58:02.092Z,24.70
2018-07-10T15:00:30.709Z,24.54
2018-07-10T15:02:59.468Z,24.40
2018-07-10T15:05:28.152Z,24.37
2018-07-10T15:07:56.830Z,24.39
2018-07-10T15:10:25.554Z,24.44
2018-07-10T15:12:54.273Z,24.42
2018-07-10T15:15:23.292Z,24.37
2018-07-10T15:17:57.143Z,24.36
2018-07-10T15:20:25.903Z,24.33
2018-07-10T15:22:54.549Z,24.30
2018-07-10T15:25:23.169Z,24.25
2018-07-10T15:27:51.817Z,24.10
2018-07-10T15:30:20.418Z,24.03
2018-07-10T15:32:49.086Z,23.99
2018-07-10T15:35:17.818Z,23.96
2018-07-10T15:37:46.526Z,23.97
2018-07-10T15:40:15.286Z,24.02
2018-07-10T15:42:44.002Z,24.12
2018-07-10T15:45:12.917Z,24.31
2018-07-10T15:47:41.614Z,24.54
2018-07-10T15:50:10.264Z,24.75
2018-07-10T15:52:38.876Z,24.87
2018-07-10T15:55:07.515Z,24.93
2018-07-10T15:57:36.276Z,25.13
2018-07-10T16:00:04.964Z,25.29
2018-07-10T16:02:33.650Z,25.40
2018-07-10T16:05:02.324Z,25.61
2018-07-10T16:07:30.926Z,25.81
2018-07-10T16:09:59.680Z,25.96
2018-07-10T16:12:29.823Z,26.00
2018-07-10T16:14:58.428Z,25.88
2018-07-10T16:17:28.332Z,25.73
2018-07-10T16:20:07.674Z,25.63
2018-07-10T16:22:36.803Z,25.54
2018-07-10T16:25:12.422Z,25.44
2018-07-10T16:27:43.853Z,25.29
2018-07-10T16:30:15.172Z,25.13
2018-07-10T16:32:43.817Z,24.97
2018-07-10T16:35:12.989Z,24.78
2018-07-10T16:37:41.604Z,24.62
2018-07-10T16:40:10.345Z,24.46
2018-07-10T16:42:44.197Z,24.37
2018-07-10T16:45:16.621Z,24.22
2018-07-10T16:48:11.147Z,24.11
2018-07-10T16:50:41.981Z,23.94
2018-07-10T16:53:13.124Z,23.64
2018-07-10T16:55:41.689Z,23.38
2018-07-10T16:58:10.345Z,23.13
2018-07-10T17:00:38.957Z,22.92
2018-07-10T17:03:07.625Z,22.77
2018-07-10T17:05:36.215Z,22.67
2018-07-10T17:08:04.890Z,22.62
2018-07-10T17:10:33.400Z,22.57
2018-07-10T17:13:02.229Z,22.54
2018-07-10T17:15:30.721Z,22.54
2018-07-10T17:17:59.867Z,22.52
2018-07-10T17:20:28.586Z,22.54
2018-07-10T17:22:57.405Z,22.64
2018-07-10T17:25:26.135Z,22.74
2018-07-10T17:27:54.764Z,22.83
2018-07-10T17:30:23.242Z,22.92
2018-07-10T17:32:51.799Z,22.97
2018-07-10T17:35:20.495Z,22.98
2018-07-10T17:37:50.226Z,22.98
2018-07-10T17:40:20.284Z,22.99
2018-07-10T17:42:50.398Z,22.95
2018-07-10T17:45:22.075Z,22.88
2018-07-10T17:47:50.890Z,22.85
2018-07-10T17:50:19.466Z,22.84
2018-07-10T17:52:48.071Z,22.86
2018-07-10T17:55:16.723Z,22.88
2018-07-10T17:57:45.383Z,22.95
2018-07-10T18:00:13.814Z,23.03
2018-07-10T18:02:42.412Z,23.10
2018-07-10T18:05:11.557Z,23.13
2018-07-10T18:07:40.640Z,23.15
2018-07-10T18:10:09.219Z,23.17
2018-07-10T18:12:37.673Z,23.21
2018-07-10T18:15:06.396Z,23.25
2018-07-10T18:17:35.155Z,23.25
2018-07-10T18:20:03.768Z,23.26
2018-07-10T18:22:33.629Z,23.22
2018-07-10T18:25:02.243Z,23.22
2018-07-10T18:27:49.639Z,23.17
2018-07-10T18:30:19.552Z,22.51
2018-07-10T18:32:49.070Z,23.06
2018-07-10T18:35:18.286Z,23.00
2018-07-10T18:37:47.442Z,22.92
2018-07-10T18:40:16.457Z,22.82
2018-07-10T18:42:48.626Z,22.74
2018-07-10T18:45:18.003Z,22.67
2018-07-10T18:47:56.370Z,22.59
2018-07-10T18:50:24.960Z,22.53
2018-07-10T18:52:54.755Z,22.48
2018-07-10T18:55:23.309Z,22.47
2018-07-10T18:58:00.122Z,22.48
2018-07-10T19:00:39.873Z,22.51
2018-07-10T19:03:11.898Z,22.54
2018-07-10T19:05:47.801Z,22.58
2018-07-10T19:08:16.506Z,22.60
2018-07-10T19:10:46.505Z,22.56
2018-07-10T19:13:15.766Z,22.48
2018-07-10T19:15:45.468Z,22.41
2018-07-10T19:18:17.575Z,22.32
2018-07-10T19:21:05.622Z,22.21
2018-07-10T19:23:45.935Z,22.12
2018-07-10T19:26:15.357Z,22.04
2018-07-10T19:28:45.083Z,21.99
2018-07-10T19:31:29.258Z,21.98
2018-07-10T19:34:03.220Z,21.95
2018-07-10T19:36:34.543Z,21.95
2018-07-10T19:39:14.267Z,21.94
2018-07-10T19:41:42.897Z,21.90
2018-07-10T19:44:11.536Z,21.88
2018-07-10T19:46:40.214Z,21.88
2018-07-10T19:49:08.825Z,21.86
2018-07-10T19:51:39.677Z,21.86
2018-07-10T19:54:12.330Z,21.85
2018-07-10T19:56:41.102Z,21.85
2018-07-10T19:59:12.075Z,21.85
2018-07-10T20:01:49.485Z,21.85
2018-07-10T20:04:22.445Z,21.83
2018-07-10T20:07:41.499Z,21.81
2018-07-10T20:10:50.816Z,21.69
2018-07-10T20:13:28.442Z,21.57
2018-07-10T20:16:07.560Z,21.47
2018-07-10T20:18:51.277Z,21.35
2018-07-10T20:21:23.340Z,21.27
2018-07-10T20:23:58.175Z,21.17
2018-07-10T20:26:33.974Z,21.09
2018-07-10T20:29:10.391Z,21.03
2018-07-10T20:31:47.245Z,20.98
2018-07-10T20:34:24.681Z,20.92
2018-07-10T20:36:54.963Z,20.89
2018-07-10T20:39:38.139Z,20.86
2018-07-10T20:42:06.666Z,20.81
2018-07-10T20:45:07.064Z,20.74
2018-07-10T20:47:58.708Z,20.66
2018-07-10T20:50:38.182Z,20.56
2018-07-10T20:53:14.815Z,20.50
2018-07-10T20:55:46.725Z,20.42
2018-07-10T20:58:17.743Z,20.35
2018-07-10T21:01:06.767Z,20.28
2018-07-10T21:03:50.662Z,20.17
2018-07-10T21:06:21.957Z,20.11
2018-07-10T21:09:03.531Z,20.06
2018-07-10T21:11:39.674Z,19.99
2018-07-10T21:14:15.744Z,19.91
2018-07-10T21:17:18.598Z,19.87
2018-07-10T21:22:03.478Z,19.83
2018-07-10T21:24:38.175Z,19.72
2018-07-10T21:27:10.629Z,19.68
2018-07-10T21:29:52.702Z,19.66
2018-07-10T21:32:28.601Z,19.64
2018-07-10T21:34:58.670Z,19.61
2018-07-10T21:38:07.267Z,19.58
2018-07-10T21:42:54.556Z,19.53
2018-07-10T21:45:30.493Z,19.47
2018-07-10T21:48:06.577Z,19.44
2018-07-10T21:50:47.447Z,19.42
2018-07-10T21:53:16.533Z,19.40
2018-07-10T21:55:45.375Z,19.38
2018-07-10T21:58:14.051Z,19.37
2018-07-10T22:00:55.635Z,19.38
2018-07-10T22:03:24.148Z,19.40
2018-07-10T22:05:52.728Z,19.41
2018-07-10T22:08:21.259Z,19.41
2018-07-10T22:10:49.900Z,19.39
2018-07-10T22:13:18.496Z,19.35
2018-07-10T22:15:47.164Z,19.31
2018-07-10T22:18:15.674Z,19.28
2018-07-10T22:20:45.112Z,19.26
2018-07-10T22:23:13.816Z,19.21
2018-07-10T22:25:42.349Z,19.19
2018-07-10T22:28:10.855Z,19.14
2018-07-10T22:30:44.605Z,19.11
2018-07-10T22:33:13.174Z,19.07
2018-07-10T22:35:41.681Z,19.03
2018-07-10T22:38:10.287Z,19.01
2018-07-10T22:40:39.020Z,19.00
2018-07-10T22:43:07.754Z,18.98
2018-07-10T22:45:36.344Z,18.94
2018-07-10T22:48:05.042Z,18.93
2018-07-10T22:50:33.720Z,18.90
2018-07-10T22:53:02.537Z,18.88
2018-07-10T22:55:33.250Z,18.86
2018-07-10T22:58:05.375Z,18.84
2018-07-10T23:00:38.152Z,18.83
2018-07-10T23:03:16.053Z,18.81
2018-07-10T23:05:45.261Z,18.79
2018-07-10T23:08:14.181Z,18.80
2018-07-10T23:10:42.890Z,18.83
2018-07-10T23:13:11.705Z,18.88
2018-07-10T23:15:40.487Z,18.95
2018-07-10T23:18:09.197Z,19.01
2018-07-10T23:20:37.944Z,19.08
2018-07-10T23:23:06.613Z,19.15
2018-07-10T23:25:35.364Z,19.21
2018-07-10T23:28:06.286Z,19.26
2018-07-10T23:30:37.102Z,19.31
2018-07-10T23:33:09.299Z,19.36
2018-07-10T23:35:38.192Z,19.38
2018-07-10T23:38:10.772Z,19.38
2018-07-10T23:40:42.332Z,19.33
2018-07-10T23:43:11.035Z,19.26
2018-07-10T23:45:39.907Z,19.18
2018-07-10T23:48:08.414Z,19.11
2018-07-10T23:50:38.231Z,19.07
2018-07-10T23:53:35.887Z,19.03
2018-07-10T23:56:04.557Z,18.97
2018-07-10T23:58:33.664Z,18.94
